Time;durP1;ratioP1;P1;durP2;ratioP2;P2;SDS_P1;SDS_P2;PMS_P1;PMS_P2;Temp;Humidity;BMP_temperature;BMP_pressure;BME280_temperature;BME280_humidity;BME280_pressure;Samples;Min_cycle;Max_cycle;Signal;HPM_P1;HPM_P2
2021/10/23 00:00:16;;;;;;;;;8.00;8.00;;;;;11.97;64.60;101873.69;5075858;27;64510;-61
2021/10/23 00:02:42;;;;;;;;;10.00;9.00;;;;;11.98;64.47;101869.25;5078111;27;46024;-61
2021/10/23 00:05:08;;;;;;;;;10.50;8.50;;;;;11.99;64.56;101869.19;5077890;27;45568;-61
2021/10/23 00:07:33;;;;;;;;;10.50;8.00;;;;;12.00;64.15;101870.88;5076325;28;48301;-61
2021/10/23 00:09:59;;;;;;;;;10.00;9.25;;;;;12.01;64.39;101869.94;5077769;27;45277;-60
2021/10/23 00:12:24;;;;;;;;;8.50;6.75;;;;;12.02;64.56;101868.97;5077025;27;60742;-61
2021/10/23 00:14:50;;;;;;;;;10.00;7.00;;;;;12.05;64.50;101867.06;5077516;27;52281;-60
2021/10/23 00:17:15;;;;;;;;;9.00;8.25;;;;;12.07;63.86;101870.44;5076820;27;70886;-61
2021/10/23 00:19:40;;;;;;;;;7.75;6.50;;;;;12.07;64.36;101871.25;5077503;27;45319;-60
2021/10/23 00:22:06;;;;;;;;;11.00;8.00;;;;;12.08;63.89;101874.75;5077053;27;47611;-61
2021/10/23 00:24:31;;;;;;;;;9.00;7.75;;;;;12.08;64.13;101874.75;5077650;27;45310;-60
2021/10/23 00:26:57;;;;;;;;;13.00;8.50;;;;;12.10;63.88;101875.47;5076748;27;67174;-61
2021/10/23 00:29:22;;;;;;;;;10.25;8.25;;;;;12.11;63.77;101877.16;5077171;27;53124;-60
2021/10/23 00:31:48;;;;;;;;;8.00;7.25;;;;;12.12;63.72;101876.19;5077695;27;45354;-61
2021/10/23 00:34:13;;;;;;;;;9.50;7.25;;;;;12.13;64.21;101877.88;5077675;27;45552;-61
2021/10/23 00:36:39;;;;;;;;;8.75;7.50;;;;;12.12;63.83;101879.66;5077094;28;45287;-61
2021/10/23 00:39:04;;;;;;;;;9.50;6.75;;;;;12.13;63.25;101881.34;5077272;27;45337;-61
2021/10/23 00:41:29;;;;;;;;;9.50;6.50;;;;;12.15;63.53;101878.63;5075750;27;67582;-60
2021/10/23 00:43:55;;;;;;;;;9.00;7.50;;;;;12.15;63.32;101878.63;5077063;27;50749;-61
2021/10/23 00:46:20;;;;;;;;;7.25;6.00;;;;;12.13;63.58;101876.06;5075707;27;51372;-61
2021/10/23 00:48:46;;;;;;;;;7.25;7.00;;;;;12.15;63.40;101878.63;5074834;28;73910;-60
2021/10/23 00:51:11;;;;;;;;;9.75;7.00;;;;;12.14;62.85;101877.75;5077314;27;45624;-60
2021/10/23 00:53:37;;;;;;;;;8.25;8.00;;;;;12.15;62.98;101868.06;5075626;28;45581;-60
2021/10/23 00:56:03;;;;;;;;;6.25;6.25;;;;;12.15;62.80;101875.97;5077058;27;46139;-61
2021/10/23 00:58:28;;;;;;;;;8.50;7.00;;;;;12.13;63.14;101875.25;5077192;27;45262;-60
2021/10/23 01:00:54;;;;;;;;;11.75;8.00;;;;;12.12;63.56;101878.84;5076380;27;58811;-60
2021/10/23 01:03:19;;;;;;;;;7.50;6.50;;;;;12.11;63.42;101882.44;5076257;27;63936;-60
2021/10/23 01:05:44;;;;;;;;;7.25;6.00;;;;;12.10;63.68;101878.09;5076088;27;71685;-61
2021/10/23 01:08:10;;;;;;;;;10.50;7.50;;;;;12.09;64.03;101874.63;5076082;27;64589;-60
2021/10/23 01:10:35;;;;;;;;;7.50;7.50;;;;;12.09;64.02;101873.78;5075052;28;57845;-61
2021/10/23 01:13:01;;;;;;;;;11.75;9.00;;;;;12.07;63.85;101879.16;5076824;27;45295;-61
2021/10/23 01:15:28;;;;;;;;;10.00;7.00;;;;;12.07;63.84;101878.34;5074765;27;64240;-61
2021/10/23 01:17:54;;;;;;;;;10.50;7.75;;;;;12.08;63.95;101882.66;5075500;28;45333;-61
2021/10/23 01:20:20;;;;;;;;;10.00;7.00;;;;;12.05;63.94;101882.88;5076979;28;45459;-60
2021/10/23 01:22:46;;;;;;;;;8.50;6.00;;;;;12.05;64.30;101877.59;5076578;27;45320;-60
2021/10/23 01:25:11;;;;;;;;;10.00;7.00;;;;;12.05;64.21;101877.59;5074902;28;54731;-61
2021/10/23 01:27:40;;;;;;;;;9.25;6.50;;;;;12.04;63.84;101878.56;5076785;27;45299;-61
2021/10/23 01:30:07;;;;;;;;;9.00;8.00;;;;;12.01;64.40;101872.56;5076668;27;45339;-61
2021/10/23 01:32:32;;;;;;;;;6.25;4.75;;;;;12.01;64.36;101867.28;5076659;27;45374;-61
2021/10/23 01:34:57;;;;;;;;;8.75;6.50;;;;;12.01;64.59;101861.16;5075715;27;66556;-61
2021/10/23 01:37:54;;;;;;;;;9.50;7.00;;;;;12.00;63.85;101864.75;5075193;28;45336;-61
2021/10/23 01:40:23;;;;;;;;;6.25;5.75;;;;;12.00;64.13;101848.94;5076645;27;45392;-60
2021/10/23 01:42:49;;;;;;;;;13.00;9.50;;;;;11.99;64.39;101849.88;5076684;27;45573;-61
2021/10/23 01:45:14;;;;;;;;;8.50;7.50;;;;;11.99;64.40;101839.31;5076327;27;46179;-61
2021/10/23 01:47:40;;;;;;;;;8.25;7.00;;;;;11.98;64.35;101850.81;5076032;27;55295;-60
2021/10/23 01:50:11;;;;;;;;;9.50;6.00;;;;;11.97;64.54;101851.78;5076340;27;45922;-61
2021/10/23 01:52:38;;;;;;;;;10.00;8.00;;;;;11.95;64.35;101849.25;5078278;27;45441;-61
2021/10/23 01:55:04;;;;;;;;;7.25;7.00;;;;;11.96;64.40;101850.09;5079787;27;46385;-61
2021/10/23 01:57:29;;;;;;;;;7.00;6.75;;;;;11.96;64.61;101856.22;5079627;28;45307;-61
2021/10/23 01:59:54;;;;;;;;;12.00;7.25;;;;;11.96;64.28;101853.59;5079854;27;45755;-60
2021/10/23 02:02:21;;;;;;;;;8.75;7.00;;;;;11.98;64.12;101846.41;5079050;27;64681;-61
2021/10/23 02:04:46;;;;;;;;;9.75;8.00;;;;;11.99;63.97;101852.50;5078059;27;46533;-60
2021/10/23 02:07:11;;;;;;;;;8.00;7.00;;;;;11.98;64.72;101848.19;5079035;27;64291;-60
2021/10/23 02:09:37;;;;;;;;;11.75;9.00;;;;;11.99;64.23;101850.75;5079189;27;53732;-61
2021/10/23 02:12:03;;;;;;;;;7.00;5.75;;;;;11.99;64.19;101848.13;5079021;27;60704;-61
2021/10/23 02:14:28;;;;;;;;;7.00;6.00;;;;;11.97;64.36;101839.47;5079470;27;46333;-60
2021/10/23 02:16:53;;;;;;;;;8.25;6.50;;;;;11.98;64.28;101835.00;5079458;27;47404;-61
2021/10/23 02:19:19;;;;;;;;;10.00;6.25;;;;;11.98;64.30;101846.41;5079619;27;45741;-60
2021/10/23 02:21:44;;;;;;;;;11.75;10.75;;;;;12.00;64.31;101835.78;5078378;28;45495;-60
2021/10/23 02:24:10;;;;;;;;;12.75;10.00;;;;;12.00;63.52;101828.72;5078271;27;70176;-61
2021/10/23 02:26:35;;;;;;;;;12.00;10.00;;;;;12.02;63.89;101826.81;5079207;27;51444;-61
2021/10/23 02:29:01;;;;;;;;;11.25;10.00;;;;;12.02;63.47;101826.81;5079474;27;45260;-60
2021/10/23 02:31:26;;;;;;;;;12.00;10.25;;;;;12.04;63.70;101825.88;5079467;27;45287;-61
2021/10/23 02:33:51;;;;;;;;;11.50;10.75;;;;;12.04;63.69;101828.50;5079231;27;45543;-61
2021/10/23 02:36:17;;;;;;;;;8.75;7.75;;;;;12.04;63.62;101821.44;5079186;27;45501;-60
2021/10/23 02:38:42;;;;;;;;;12.75;8.75;;;;;12.04;63.54;101825.88;5079317;27;45549;-61
2021/10/23 02:41:08;;;;;;;;;8.50;7.75;;;;;12.03;63.89;101817.13;5079056;27;45474;-61
2021/10/23 02:43:33;;;;;;;;;11.75;9.00;;;;;12.02;64.02;101824.19;5079097;27;45416;-61
2021/10/23 02:45:59;;;;;;;;;7.75;6.00;;;;;12.02;63.78;101832.09;5077764;28;45437;-60
2021/10/23 02:48:24;;;;;;;;;9.50;8.00;;;;;12.04;63.33;101834.59;5079297;27;45616;-60
2021/10/23 02:50:50;;;;;;;;;9.00;7.75;;;;;12.04;63.42;101833.78;5079006;27;45307;-60
2021/10/23 02:53:15;;;;;;;;;8.00;7.00;;;;;12.04;63.38;101833.78;5078971;27;46253;-61
2021/10/23 02:55:40;;;;;;;;;9.50;7.50;;;;;12.01;63.11;101825.16;5078910;27;45263;-60
2021/10/23 02:58:06;;;;;;;;;8.25;5.75;;;;;12.02;63.48;101832.09;5078990;27;45252;-60
2021/10/23 03:00:31;;;;;;;;;6.50;6.50;;;;;12.03;63.68;101838.19;5078929;28;45245;-61
2021/10/23 03:02:57;;;;;;;;;7.50;6.75;;;;;12.05;63.17;101840.72;5076855;27;45351;-60
2021/10/23 03:05:22;;;;;;;;;6.75;5.50;;;;;12.04;63.29;101836.41;5077563;28;45383;-60
2021/10/23 03:07:48;;;;;;;;;6.75;5.25;;;;;12.04;63.43;101842.50;5078924;27;45397;-61
2021/10/23 03:10:13;;;;;;;;;8.00;8.00;;;;;12.05;62.98;101846.00;5060714;27;45308;-60
2021/10/23 03:12:39;;;;;;;;;9.25;7.00;;;;;12.04;63.53;101845.13;5078657;28;45517;-61
2021/10/23 03:15:05;;;;;;;;;8.50;6.50;;;;;12.04;63.37;101836.41;5077906;27;67483;-61
2021/10/23 03:17:30;;;;;;;;;9.25;6.50;;;;;12.04;63.68;101837.22;5077491;28;45295;-61
2021/10/23 03:19:57;;;;;;;;;9.75;8.00;;;;;12.02;63.55;101834.72;5078264;27;55752;-60
2021/10/23 03:22:22;;;;;;;;;8.25;7.50;;;;;12.02;63.46;101833.88;5078095;27;47332;-60
2021/10/23 03:24:48;;;;;;;;;7.00;6.50;;;;;12.02;63.61;101833.88;5078437;27;45421;-60
2021/10/23 03:27:14;;;;;;;;;7.50;6.25;;;;;12.05;63.52;101835.44;5059807;28;54787;-61
2021/10/23 03:29:39;;;;;;;;;7.75;6.00;;;;;12.04;63.16;101826.69;5077290;27;45240;-61
2021/10/23 03:32:05;;;;;;;;;7.25;7.25;;;;;12.05;63.52;101830.19;5078481;27;45928;-60
2021/10/23 03:34:30;;;;;;;;;9.50;7.25;;;;;12.05;63.26;101831.00;5078208;27;49282;-60
2021/10/23 03:36:56;;;;;;;;;9.00;7.00;;;;;12.05;62.92;101832.81;5077883;27;56426;-60
2021/10/23 03:39:21;;;;;;;;;7.25;7.00;;;;;12.02;63.50;101834.72;5078328;27;45361;-61
2021/10/23 03:41:47;;;;;;;;;12.75;10.00;;;;;12.04;63.37;101844.31;5078181;27;45389;-61
2021/10/23 03:44:12;;;;;;;;;10.00;8.25;;;;;12.04;63.42;101829.31;5077894;27;45301;-60
2021/10/23 03:46:37;;;;;;;;;14.50;8.25;;;;;12.04;63.42;101837.22;5077455;27;61624;-60
2021/10/23 03:49:03;;;;;;;;;11.75;8.00;;;;;12.03;63.95;101832.91;5076765;28;45511;-60
2021/10/23 03:51:28;;;;;;;;;11.50;9.25;;;;;12.04;63.58;101834.59;5078030;27;45345;-61
2021/10/23 03:53:54;;;;;;;;;5.25;3.25;;;;;12.04;63.40;101828.50;5077271;27;66131;-61
2021/10/23 03:56:19;;;;;;;;;7.25;7.00;;;;;12.04;63.33;101828.50;5077206;27;67503;-60
2021/10/23 03:58:44;;;;;;;;;8.75;8.00;;;;;12.04;63.69;101825.88;5078136;27;45659;-60
2021/10/23 04:01:10;;;;;;;;;8.50;7.00;;;;;12.02;64.15;101821.56;5075865;28;67663;-60
2021/10/23 04:03:35;;;;;;;;;8.00;7.00;;;;;12.02;63.77;101825.97;5077847;27;45299;-60
2021/10/23 04:06:00;;;;;;;;;11.25;8.00;;;;;12.01;64.02;101821.66;5077196;27;62472;-60
2021/10/23 04:08:26;;;;;;;;;8.25;8.25;;;;;11.99;63.80;101837.59;5077302;27;62102;-61
2021/10/23 04:10:51;;;;;;;;;10.50;9.75;;;;;11.98;63.68;101824.47;5076773;27;70970;-61
2021/10/23 04:13:17;;;;;;;;;13.50;10.00;;;;;11.96;63.62;101821.97;5076860;27;66369;-60
2021/10/23 04:15:42;;;;;;;;;10.25;9.50;;;;;11.96;63.64;101835.16;5076680;27;45346;-61
2021/10/23 04:18:07;;;;;;;;;8.75;7.50;;;;;11.97;64.14;101835.97;5077054;27;63273;-60
2021/10/23 04:20:33;;;;;;;;;11.25;10.75;;;;;11.96;64.54;101831.66;5075741;28;62017;-61
2021/10/23 04:22:58;;;;;;;;;9.50;8.50;;;;;11.94;64.48;101839.69;5077113;27;45365;-61
2021/10/23 04:25:23;;;;;;;;;9.50;7.00;;;;;11.94;64.47;101838.81;5077021;27;54335;-61
2021/10/23 04:27:49;;;;;;;;;9.50;7.50;;;;;11.91;64.72;101833.81;5076901;27;60540;-61
2021/10/23 04:30:14;;;;;;;;;11.75;9.75;;;;;11.90;64.92;101838.22;5077273;27;48639;-61
2021/10/23 04:32:40;;;;;;;;;10.50;9.50;;;;;11.88;65.07;101833.09;5076747;27;65533;-60
2021/10/23 04:35:06;;;;;;;;;8.50;7.00;;;;;11.88;65.14;101837.50;5076797;27;64792;-60
2021/10/23 04:37:31;;;;;;;;;8.75;8.25;;;;;11.89;64.56;101833.91;5076915;27;45461;-61
2021/10/23 04:39:56;;;;;;;;;8.00;7.00;;;;;11.88;64.93;101832.22;5076034;28;45606;-60
2021/10/23 04:42:22;;;;;;;;;9.25;7.75;;;;;11.88;64.82;101829.59;5077398;28;45365;-60
2021/10/23 04:44:47;;;;;;;;;12.50;10.00;;;;;11.86;64.73;101828.88;5075915;28;45863;-60
2021/10/23 04:47:13;;;;;;;;;9.25;9.00;;;;;11.84;64.86;101833.41;5077229;27;45623;-60
2021/10/23 04:49:38;;;;;;;;;12.50;9.25;;;;;11.82;64.70;101840.56;5077036;27;45530;-61
2021/10/23 04:52:04;;;;;;;;;11.50;8.75;;;;;11.80;65.10;101832.81;5077032;27;52408;-60
2021/10/23 04:54:29;;;;;;;;;8.00;8.00;;;;;11.78;64.62;101833.84;5077115;27;45374;-60
2021/10/23 04:56:54;;;;;;;;;6.50;6.25;;;;;11.75;65.23;101834.06;5076502;27;60409;-61
2021/10/23 04:59:20;;;;;;;;;7.25;6.00;;;;;11.70;65.18;101837.06;5077043;27;46535;-60
2021/10/23 05:01:45;;;;;;;;;10.25;7.00;;;;;11.68;65.33;101838.94;5076367;27;62910;-60
2021/10/23 05:04:10;;;;;;;;;10.00;6.50;;;;;11.66;65.33;101836.41;5076510;27;56024;-61
2021/10/23 05:06:36;;;;;;;;;7.50;6.00;;;;;11.65;65.66;101842.66;5076089;27;64253;-60
2021/10/23 05:09:01;;;;;;;;;7.25;7.25;;;;;11.65;65.93;101841.81;5075913;27;69680;-61
2021/10/23 05:11:26;;;;;;;;;8.50;6.00;;;;;11.66;65.86;101852.22;5076749;27;45237;-60
2021/10/23 05:13:52;;;;;;;;;10.50;9.50;;;;;11.66;65.96;101840.84;5075872;27;65786;-60
2021/10/23 05:16:17;;;;;;;;;6.75;6.75;;;;;11.68;65.29;101842.41;5076043;27;63145;-60
2021/10/23 05:18:48;;;;;;;;;9.00;8.00;;;;;11.68;65.59;101850.31;5074548;28;70978;-61
2021/10/23 05:21:13;;;;;;;;;10.00;9.00;;;;;11.68;65.93;101846.84;5076701;27;45436;-61
2021/10/23 05:23:39;;;;;;;;;8.25;8.00;;;;;11.68;65.59;101846.84;5076476;27;45530;-61
2021/10/23 05:26:04;;;;;;;;;8.00;7.25;;;;;11.66;65.45;101849.56;5076146;27;45425;-60
2021/10/23 05:28:30;;;;;;;;;8.25;8.25;;;;;11.63;65.88;101854.25;5075712;27;66585;-61
2021/10/23 05:30:55;;;;;;;;;5.75;5.75;;;;;11.57;66.01;101853.72;5075965;27;62836;-60
2021/10/23 05:33:21;;;;;;;;;10.75;9.25;;;;;11.55;66.58;101854.78;5076717;27;45836;-60
2021/10/23 05:35:46;;;;;;;;;8.25;8.00;;;;;11.53;65.96;101851.44;5075980;27;62842;-61
2021/10/23 05:38:11;;;;;;;;;9.75;8.25;;;;;11.53;66.33;101851.44;5076330;27;45597;-60
2021/10/23 05:40:37;;;;;;;;;11.25;10.00;;;;;11.53;66.47;101848.81;5075606;27;66098;-61
2021/10/23 05:43:02;;;;;;;;;10.50;10.50;;;;;11.53;66.39;101856.69;5075719;27;66438;-60
2021/10/23 05:45:28;;;;;;;;;10.50;10.00;;;;;11.52;66.74;101860.28;5076299;27;45303;-60
2021/10/23 05:47:53;;;;;;;;;12.25;10.00;;;;;11.54;66.48;101858.38;5076371;27;45610;-61
2021/10/23 05:50:18;;;;;;;;;8.25;7.50;;;;;11.53;66.21;101859.34;5076288;28;45330;-61
2021/10/23 05:52:44;;;;;;;;;11.00;8.75;;;;;11.50;66.55;101856.91;5075727;27;56910;-61
2021/10/23 05:55:09;;;;;;;;;11.00;11.00;;;;;11.51;66.26;101853.34;5076105;27;45280;-60
2021/10/23 05:57:35;;;;;;;;;11.50;11.50;;;;;11.47;66.68;101857.97;5076154;27;45442;-60
2021/10/23 06:00:06;;;;;;;;;14.50;10.50;;;;;11.46;66.58;101861.53;5075282;27;69311;-61
2021/10/23 06:02:32;;;;;;;;;10.25;9.50;;;;;11.45;66.74;101869.56;5074997;28;45461;-60
2021/10/23 06:04:59;;;;;;;;;12.25;10.50;;;;;11.43;66.41;101873.13;5076051;27;45320;-60
2021/10/23 06:07:26;;;;;;;;;11.75;9.50;;;;;11.42;66.55;101868.81;5074672;27;45372;-60
2021/10/23 06:09:52;;;;;;;;;13.00;10.50;;;;;11.38;67.08;101871.78;5075947;27;45855;-61
2021/10/23 06:12:18;;;;;;;;;13.50;10.00;;;;;11.38;66.64;101875.25;5074706;28;45330;-60
2021/10/23 06:14:43;;;;;;;;;8.50;8.50;;;;;11.37;67.04;101878.84;5075715;28;45502;-60
2021/10/23 06:17:08;;;;;;;;;12.00;9.75;;;;;11.36;66.74;101881.59;5075698;27;45603;-61
2021/10/23 06:19:34;;;;;;;;;12.50;10.25;;;;;11.36;66.62;101873.69;5073671;28;62818;-61
2021/10/23 06:22:00;;;;;;;;;24.00;22.25;;;;;11.35;66.95;101872.84;5075771;27;45237;-60
2021/10/23 06:24:25;;;;;;;;;23.00;21.00;;;;;11.36;66.76;101877.16;5074057;27;45521;-61
2021/10/23 06:26:51;;;;;;;;;20.25;15.00;;;;;11.33;67.21;101877.38;5073133;28;74712;-61
2021/10/23 06:29:16;;;;;;;;;18.50;17.00;;;;;11.32;67.33;101882.75;5075715;28;45220;-60
2021/10/23 06:31:41;;;;;;;;;17.50;15.00;;;;;11.33;67.01;101893.16;5074638;27;66575;-61
2021/10/23 06:34:07;;;;;;;;;20.50;17.25;;;;;11.32;67.04;101888.84;5072750;28;64432;-61
2021/10/23 06:36:32;;;;;;;;;12.00;12.00;;;;;11.32;67.28;101896.72;5075007;27;45364;-60
2021/10/23 06:38:57;;;;;;;;;13.75;12.50;;;;;11.31;67.62;101889.78;5076554;27;70859;-61
2021/10/23 06:41:23;;;;;;;;;14.50;13.00;;;;;11.31;67.48;101894.22;5078430;27;59829;-61
2021/10/23 06:43:48;;;;;;;;;14.75;12.00;;;;;11.31;67.25;101896.84;5079051;27;45180;-60
2021/10/23 06:46:14;;;;;;;;;10.25;10.00;;;;;11.31;67.32;101900.31;5077874;27;72183;-61
2021/10/23 06:48:39;;;;;;;;;15.50;11.00;;;;;11.32;67.25;101898.53;5077089;27;45304;-60
2021/10/23 06:51:05;;;;;;;;;12.25;12.25;;;;;11.32;67.74;101899.38;5078330;27;60896;-60
2021/10/23 06:53:30;;;;;;;;;13.50;11.25;;;;;11.33;67.30;101908.13;5078940;27;45556;-61
2021/10/23 06:55:55;;;;;;;;;15.00;12.75;;;;;11.33;67.25;101908.94;5078289;27;55607;-60
2021/10/23 06:58:21;;;;;;;;;15.00;8.75;;;;;11.35;67.89;101919.38;5077943;27;66352;-61
2021/10/23 07:00:46;;;;;;;;;17.50;14.50;;;;;11.35;67.69;101920.22;5078215;27;58974;-60
2021/10/23 07:03:11;;;;;;;;;16.25;15.00;;;;;11.37;67.89;101931.47;5078190;27;59069;-60
2021/10/23 07:05:37;;;;;;;;;13.50;12.00;;;;;11.38;67.46;101927.06;5077796;27;68292;-61
2021/10/23 07:08:02;;;;;;;;;13.00;12.00;;;;;11.40;67.60;101927.75;5078552;27;45346;-60
2021/10/23 07:10:28;;;;;;;;;13.00;12.50;;;;;11.39;67.61;101934.84;5078671;27;45363;-61
2021/10/23 07:12:53;;;;;;;;;14.25;10.00;;;;;11.39;67.58;101937.47;5078692;27;45283;-61
2021/10/23 07:15:19;;;;;;;;;15.25;12.25;;;;;11.40;67.87;101939.16;5077044;27;46606;-61
2021/10/23 07:17:44;;;;;;;;;12.00;12.00;;;;;11.41;67.96;101946.09;5060351;28;45322;-60
2021/10/23 07:20:10;;;;;;;;;17.75;13.00;;;;;11.42;68.13;101947.78;5077746;27;67948;-60
2021/10/23 07:22:35;;;;;;;;;15.00;13.75;;;;;11.43;68.02;101951.25;5078345;27;45239;-61
2021/10/23 07:25:01;;;;;;;;;19.50;19.00;;;;;11.45;68.46;101954.59;5078244;27;45260;-60
2021/10/23 07:27:26;;;;;;;;;23.50;21.75;;;;;11.48;67.89;101956.19;5077041;27;45329;-61
2021/10/23 07:29:52;;;;;;;;;17.75;17.25;;;;;11.50;67.36;101965.66;5078595;27;45444;-61
2021/10/23 07:32:17;;;;;;;;;20.50;20.25;;;;;11.48;67.26;101961.47;5077161;27;45300;-61
2021/10/23 07:34:43;;;;;;;;;23.25;20.25;;;;;11.49;67.17;101968.41;5078116;28;46518;-60
2021/10/23 07:37:08;;;;;;;;;24.00;21.25;;;;;11.47;67.12;101973.78;5077801;27;58322;-61
2021/10/23 07:39:34;;;;;;;;;23.25;21.25;;;;;11.46;67.62;101977.34;5077891;27;45324;-61
2021/10/23 07:42:00;;;;;;;;;23.50;22.75;;;;;11.46;67.70;101976.53;5078103;27;45362;-61
2021/10/23 07:44:25;;;;;;;;;23.75;23.75;;;;;11.45;67.49;101980.09;5077751;27;45478;-59
2021/10/23 07:46:50;;;;;;;;;23.00;19.50;;;;;11.46;67.79;101979.16;5076952;28;45420;-61
2021/10/23 07:49:16;;;;;;;;;22.25;16.75;;;;;11.43;68.02;101981.03;5077868;27;45556;-60
2021/10/23 07:51:41;;;;;;;;;23.25;20.00;;;;;11.45;68.29;101980.94;5077202;27;62433;-61
2021/10/23 07:54:08;;;;;;;;;22.75;21.75;;;;;11.47;67.89;101984.28;5077455;27;51767;-61
2021/10/23 07:56:33;;;;;;;;;24.25;19.25;;;;;11.50;68.42;101983.25;5077918;27;45362;-60
2021/10/23 07:58:59;;;;;;;;;24.50;20.00;;;;;11.56;68.04;101991.56;5078045;27;45795;-60
2021/10/23 08:01:25;;;;;;;;;30.25;27.00;;;;;11.63;68.19;101993.78;5076847;27;63062;-60
2021/10/23 08:03:50;;;;;;;;;30.75;23.75;;;;;11.65;67.74;101990.09;5076021;28;45459;-60
2021/10/23 08:06:16;;;;;;;;;24.50;19.50;;;;;11.68;68.06;101995.13;5075290;27;66028;-61
2021/10/23 08:08:41;;;;;;;;;22.50;20.75;;;;;11.72;67.90;102001.03;5075321;27;60893;-61
2021/10/23 08:11:07;;;;;;;;;21.50;19.00;;;;;11.76;68.00;101993.75;5075148;27;70027;-60
2021/10/23 08:13:33;;;;;;;;;21.75;19.50;;;;;11.78;67.63;101994.47;5076160;27;46890;-61
2021/10/23 08:15:59;;;;;;;;;26.75;24.25;;;;;11.79;67.90;101996.16;5076408;27;46031;-61
2021/10/23 08:18:24;;;;;;;;;25.00;22.25;;;;;11.83;67.43;101995.84;5077510;27;45494;-61
2021/10/23 08:20:50;;;;;;;;;23.75;18.50;;;;;11.87;67.46;101996.47;5076619;27;65604;-60
2021/10/23 08:23:15;;;;;;;;;23.75;21.25;;;;;11.94;67.43;101996.88;5076664;27;57632;-61
2021/10/23 08:25:40;;;;;;;;;28.75;19.50;;;;;11.96;66.82;101995.81;5075767;28;45516;-61
2021/10/23 08:28:06;;;;;;;;;24.00;19.50;;;;;12.01;66.74;101998.16;5077166;27;50684;-63
2021/10/23 08:30:31;;;;;;;;;22.25;20.00;;;;;12.06;66.81;101997.84;5076134;28;45587;-60
2021/10/23 08:32:57;;;;;;;;;23.25;22.25;;;;;12.13;66.54;101997.28;5075673;27;45996;-63
2021/10/23 08:35:23;;;;;;;;;25.50;23.75;;;;;12.21;66.68;101999.34;5076150;27;45461;-61
2021/10/23 08:37:50;;;;;;;;;27.75;24.00;;;;;12.27;66.33;101988.38;5075662;27;45371;-60
2021/10/23 08:40:15;;;;;;;;;28.25;24.75;;;;;12.34;66.26;101999.31;5077044;27;45193;-60
2021/10/23 08:42:41;;;;;;;;;36.50;31.25;;;;;12.41;66.04;101995.28;5077104;27;46424;-61
2021/10/23 08:45:09;;;;;;;;;34.00;29.75;;;;;12.49;65.76;101999.13;5077095;27;45234;-61
2021/10/23 08:47:36;;;;;;;;;29.50;25.75;;;;;12.55;65.81;101993.41;5077178;27;45177;-60
2021/10/23 08:50:02;;;;;;;;;31.25;25.25;;;;;12.63;65.40;101998.97;5076982;27;45318;-59
2021/10/23 08:52:28;;;;;;;;;31.75;25.25;;;;;12.68;65.03;101996.00;5076123;27;45551;-61
2021/10/23 08:54:54;;;;;;;;;33.75;28.50;;;;;12.74;65.07;101995.53;5074642;27;69157;-60
2021/10/23 08:57:20;;;;;;;;;30.75;24.50;;;;;12.81;65.18;101999.38;5076947;27;45416;-60
2021/10/23 08:59:45;;;;;;;;;20.50;20.00;;;;;12.89;64.82;101999.66;5076837;27;45382;-61
2021/10/23 09:02:11;;;;;;;;;31.50;28.00;;;;;12.99;64.57;101999.78;5074932;27;66410;-61
2021/10/23 09:04:36;;;;;;;;;32.75;27.75;;;;;13.05;64.04;101994.06;5076440;27;56668;-61
2021/10/23 09:07:09;;;;;;;;;27.25;22.25;;;;;13.12;64.27;101994.44;5075632;28;45359;-60
2021/10/23 09:10:05;;;;;;;;;29.50;24.75;;;;;13.24;63.77;101997.94;5076585;27;45388;-61
2021/10/23 09:12:35;;;;;;;;;25.00;24.00;;;;;13.34;63.34;101998.06;5058931;27;45479;-61
2021/10/23 09:15:10;;;;;;;;;28.00;27.25;;;;;13.40;63.38;101997.59;5071495;28;46077;-61
2021/10/23 09:17:36;;;;;;;;;22.75;22.25;;;;;13.45;63.32;101995.47;5073564;27;45466;-60
2021/10/23 09:20:10;;;;;;;;;25.75;20.50;;;;;13.50;63.00;101998.59;5074018;28;45549;-60
2021/10/23 09:22:38;;;;;;;;;29.75;26.00;;;;;13.59;62.78;101997.03;5071433;28;46299;-60
2021/10/23 09:25:27;;;;;;;;;24.75;23.00;;;;;13.69;62.67;101996.31;5075544;27;45935;-60
2021/10/23 09:27:58;;;;;;;;;32.75;24.50;;;;;13.78;62.16;101995.59;5072781;27;45194;-61
2021/10/23 09:30:32;;;;;;;;;23.00;19.00;;;;;13.87;61.60;101999.31;5071012;28;45463;-61
2021/10/23 09:33:08;;;;;;;;;21.50;17.75;;;;;13.99;61.66;101990.41;5074980;27;45575;-61
2021/10/23 09:35:34;;;;;;;;;25.50;19.50;;;;;14.12;60.74;101990.25;5075092;28;46093;-61
2021/10/23 09:38:00;;;;;;;;;18.25;15.50;;;;;14.26;60.56;101989.16;5074816;28;45553;-62
2021/10/23 09:40:26;;;;;;;;;25.50;18.00;;;;;14.42;60.05;101982.59;5075172;27;45372;-62
2021/10/23 09:43:12;;;;;;;;;18.25;16.25;;;;;14.60;60.38;101977.59;5075020;28;45405;-61
2021/10/23 09:45:38;;;;;;;;;22.50;20.00;;;;;14.78;59.54;101988.50;5075336;28;45370;-61
2021/10/23 09:48:08;;;;;;;;;25.00;20.50;;;;;14.96;59.31;101986.94;5073882;28;45466;-62
2021/10/23 09:50:33;;;;;;;;;20.00;17.00;;;;;15.11;58.72;101983.97;5074491;28;45518;-62
2021/10/23 09:53:03;;;;;;;;;24.00;19.75;;;;;15.26;57.99;101980.03;5074361;28;45363;-61
2021/10/23 09:55:55;;;;;;;;;18.00;16.75;;;;;15.46;57.59;101982.75;5075033;28;45572;-62
2021/10/23 09:58:24;;;;;;;;;22.50;15.50;;;;;15.67;57.23;101988.00;5069207;28;50538;-61
2021/10/23 10:00:53;;;;;;;;;17.25;14.50;;;;;15.91;56.84;101981.56;5074985;28;45224;-61
2021/10/23 10:03:18;;;;;;;;;21.75;14.50;;;;;16.12;56.16;101985.94;5070778;27;46481;-61
2021/10/23 10:05:44;;;;;;;;;18.50;16.50;;;;;16.35;55.42;101988.31;5074405;27;45543;-62
2021/10/23 10:08:14;;;;;;;;;21.00;17.50;;;;;16.55;55.42;101989.16;5072972;28;45478;-61
2021/10/23 10:10:41;;;;;;;;;16.00;14.50;;;;;16.70;54.52;101992.22;5074748;28;45633;-61
2021/10/23 10:13:08;;;;;;;;;13.25;12.50;;;;;16.84;53.67;101991.78;5075176;28;46318;-61
2021/10/23 10:15:34;;;;;;;;;15.75;13.50;;;;;16.96;53.02;101988.97;5078084;27;45977;-61
2021/10/23 10:18:00;;;;;;;;;20.75;20.50;;;;;17.01;52.78;101987.59;5078179;28;45388;-61
2021/10/23 10:20:26;;;;;;;;;19.50;14.75;;;;;17.06;52.80;101993.31;5078209;27;45335;-61
2021/10/23 10:22:52;;;;;;;;;17.25;13.00;;;;;17.08;52.67;101989.69;5076213;27;45311;-61
2021/10/23 10:25:24;;;;;;;;;13.00;12.75;;;;;17.13;52.39;101992.75;5060032;28;45429;-62
2021/10/23 10:27:52;;;;;;;;;17.00;14.00;;;;;17.21;52.30;101984.91;5073287;28;45489;-62
2021/10/23 10:30:25;;;;;;;;;14.75;14.25;;;;;17.32;52.38;101987.38;5060392;28;45460;-61
2021/10/23 10:32:51;;;;;;;;;13.00;8.75;;;;;17.44;51.63;101987.22;5076252;27;46174;-61
2021/10/23 10:35:43;;;;;;;;;12.50;10.75;;;;;17.54;51.27;101988.00;5076845;28;45517;-62
2021/10/23 10:43:08;;;;;;;;;10.75;9.00;;;;;17.94;50.46;101988.63;5077529;28;46329;-61
2021/10/23 10:48:41;;;;;;;;;6.50;6.00;;;;;18.39;49.00;101987.78;5077312;28;45397;-62
2021/10/23 10:51:11;;;;;;;;;7.25;7.00;;;;;18.59;47.49;101976.13;5071745;28;45429;-62
2021/10/23 10:53:40;;;;;;;;;6.00;5.50;;;;;18.65;47.15;101975.53;5072443;28;46228;-61
2021/10/23 10:56:06;;;;;;;;;6.75;5.75;;;;;18.73;46.77;101975.59;5077789;28;45321;-62
2021/10/23 10:58:52;;;;;;;;;7.00;6.00;;;;;18.87;46.49;101976.03;5076550;28;45343;-62
2021/10/23 11:01:24;;;;;;;;;4.75;4.00;;;;;19.04;46.36;101980.50;5073527;27;45587;-61
2021/10/23 11:03:52;;;;;;;;;6.75;6.00;;;;;19.28;46.22;101973.63;5073905;28;46393;-61
2021/10/23 11:06:33;;;;;;;;;7.75;4.00;;;;;19.55;45.29;101972.59;5077133;28;45366;-62
2021/10/23 11:09:10;;;;;;;;;3.00;2.25;;;;;19.82;43.79;101959.19;5075276;28;45437;-62
2021/10/23 11:11:44;;;;;;;;;8.50;5.50;;;;;20.01;43.76;101969.59;5075799;28;45576;-61
2021/10/23 11:14:11;;;;;;;;;6.00;6.00;;;;;20.08;43.04;101963.63;5076940;27;46063;-62
2021/10/23 11:16:38;;;;;;;;;6.00;4.00;;;;;20.12;43.23;101960.44;5059101;28;45959;-61
2021/10/23 11:19:03;;;;;;;;;3.75;3.75;;;;;20.21;42.00;101960.47;5077355;28;45363;-61
2021/10/23 11:21:30;;;;;;;;;4.50;4.00;;;;;20.35;42.49;101961.63;5076930;27;45560;-62